Time;durP1;ratioP1;P1;durP2;ratioP2;P2;SDS_P1;SDS_P2;PMS_P1;PMS_P2;Temp;Humidity;BMP_temperature;BMP_pressure;BME280_temperature;BME280_humidity;BME280_pressure;Samples;Min_cycle;Max_cycle;Signal;HPM_P1;HPM_P2
2020/12/02 00:00:45;;;;;;;44.60;25.13;;;;;;;3.43;83.79;101401.91;5006702;28;20214;-68
2020/12/02 00:03:18;;;;;;;44.83;25.90;;;;;;;3.44;83.46;101408.03;5008010;28;20716;-69
2020/12/02 00:05:48;;;;;;;44.33;24.47;;;;;;;3.42;83.53;101400.16;5013938;28;20257;-68
2020/12/02 00:08:19;;;;;;;47.10;26.10;;;;;;;3.42;83.67;101394.03;5013853;28;20213;-68
2020/12/02 00:10:46;;;;;;;44.30;25.07;;;;;;;3.43;83.39;101395.75;5014050;28;20213;-69
2020/12/02 00:13:15;;;;;;;45.67;25.77;;;;;;;3.42;84.05;101404.56;5009925;28;20226;-69
2020/12/02 00:15:41;;;;;;;44.50;24.60;;;;;;;3.41;83.77;101393.16;5013794;28;20215;-68
2020/12/02 00:18:08;;;;;;;42.07;24.17;;;;;;;3.42;83.59;101394.03;5014015;28;20209;-68
2020/12/02 00:20:34;;;;;;;48.47;24.87;;;;;;;3.43;83.38;101401.91;5013998;28;20198;-68
2020/12/02 00:23:00;;;;;;;42.40;24.87;;;;;;;3.41;83.53;101395.78;5012973;28;20230;-68
2020/12/02 00:25:27;;;;;;;48.40;25.30;;;;;;;3.39;83.17;101395.00;5012756;28;20679;-69
2020/12/02 00:27:53;;;;;;;43.00;24.90;;;;;;;3.39;83.50;101391.50;5013781;28;20217;-69
2020/12/02 00:30:19;;;;;;;42.17;24.83;;;;;;;3.38;83.35;101397.66;5013674;28;20205;-68
2020/12/02 00:32:47;;;;;;;40.17;24.53;;;;;;;3.37;83.88;101396.78;5012984;28;20231;-69
2020/12/02 00:35:17;;;;;;;44.73;25.97;;;;;;;3.37;83.76;101398.56;5012885;28;20203;-69
2020/12/02 00:37:43;;;;;;;42.87;23.87;;;;;;;3.37;83.69;101383.63;5013632;28;20618;-68
2020/12/02 00:40:10;;;;;;;45.70;24.57;;;;;;;3.39;83.82;101391.50;5013187;28;20217;-69
2020/12/02 00:42:37;;;;;;;40.50;23.93;;;;;;;3.38;84.23;101389.75;5012315;28;20594;-67
2020/12/02 00:45:04;;;;;;;44.53;25.17;;;;;;;3.37;83.66;101395.91;5013427;28;20229;-68
2020/12/02 00:47:31;;;;;;;42.93;24.47;;;;;;;3.38;83.61;101392.38;5013145;28;20210;-68
2020/12/02 00:49:57;;;;;;;45.13;24.57;;;;;;;3.37;84.42;101391.53;5013659;28;20217;-67
2020/12/02 00:52:23;;;;;;;43.50;24.10;;;;;;;3.38;83.81;101400.28;5012089;28;20219;-68
2020/12/02 00:54:49;;;;;;;42.57;24.67;;;;;;;3.36;84.08;101397.69;5011227;28;20588;-67
2020/12/02 00:57:21;;;;;;;43.97;24.30;;;;;;;3.37;84.52;101396.78;5012961;28;20210;-68
2020/12/02 00:59:52;;;;;;;42.23;24.17;;;;;;;3.37;83.59;101391.53;5013628;28;20235;-67
2020/12/02 01:02:25;;;;;;;41.90;23.17;;;;;;;3.38;84.06;101390.63;5012386;28;20226;-67
2020/12/02 01:04:53;;;;;;;38.73;22.60;;;;;;;3.39;83.77;101388.84;5012460;28;20203;-67
2020/12/02 01:07:19;;;;;;;42.03;24.43;;;;;;;3.37;84.22;101386.25;5013176;28;20213;-68
2020/12/02 01:09:45;;;;;;;45.93;23.60;;;;;;;3.37;83.74;101391.53;5013014;28;20298;-67
2020/12/02 01:12:17;;;;;;;41.70;24.90;;;;;;;3.38;84.08;101400.28;5012585;28;20223;-67
2020/12/02 01:14:44;;;;;;;42.07;24.73;;;;;;;3.36;84.10;101397.69;5012244;28;20578;-67
2020/12/02 01:17:13;;;;;;;45.17;24.00;;;;;;;3.34;83.57;101399.47;5013129;28;20219;-67
2020/12/02 01:19:39;;;;;;;40.47;23.03;;;;;;;3.34;83.66;101390.72;5012706;28;20211;-67
2020/12/02 01:22:12;;;;;;;39.60;22.47;;;;;;;3.33;83.51;101388.97;5012071;28;20222;-67
2020/12/02 01:24:45;;;;;;;42.97;23.77;;;;;;;3.32;83.84;101393.38;5010581;28;20211;-67
2020/12/02 01:27:18;;;;;;;40.50;22.57;;;;;;;3.31;84.17;101389.00;5009583;28;20209;-68
2020/12/02 01:29:47;;;;;;;37.67;21.37;;;;;;;3.31;84.06;101390.78;5012910;28;20207;-67
2020/12/02 01:32:15;;;;;;;37.97;22.63;;;;;;;3.29;84.50;101396.06;5011364;28;20222;-67
2020/12/02 01:34:41;;;;;;;43.27;23.17;;;;;;;3.30;83.85;101389.03;5012078;28;20710;-67
2020/12/02 01:37:26;;;;;;;37.57;22.73;;;;;;;3.31;84.31;101385.50;5012258;28;20199;-67
2020/12/02 01:40:02;;;;;;;38.90;21.87;;;;;;;3.30;84.28;101383.78;5012392;28;20214;-67
2020/12/02 01:42:28;;;;;;;42.03;23.40;;;;;;;3.31;84.27;101385.50;5011288;28;20226;-67
2020/12/02 01:44:55;;;;;;;42.07;24.87;;;;;;;3.30;84.24;101389.91;5011834;28;20210;-67
2020/12/02 01:47:35;;;;;;;41.20;23.43;;;;;;;3.32;84.63;101387.25;5012217;28;20213;-67
2020/12/02 01:50:06;;;;;;;41.13;24.23;;;;;;;3.33;84.66;101395.09;5012624;28;20691;-67
2020/12/02 01:52:46;;;;;;;41.13;23.50;;;;;;;3.35;84.30;101387.19;5011303;28;20229;-67
2020/12/02 01:55:20;;;;;;;41.70;23.30;;;;;;;3.33;84.63;101384.59;5011622;28;20330;-67
2020/12/02 01:57:48;;;;;;;41.07;23.27;;;;;;;3.33;84.02;101389.84;5012027;28;20207;-67
2020/12/02 02:00:17;;;;;;;43.60;23.73;;;;;;;3.32;84.10;101379.34;5012755;28;20253;-67
2020/12/02 02:02:56;;;;;;;46.60;24.23;;;;;;;3.31;84.37;101388.13;5010556;28;20241;-68
2020/12/02 02:05:28;;;;;;;39.13;22.93;;;;;;;3.29;84.33;101374.16;5011027;28;20216;-67
2020/12/02 02:07:55;;;;;;;44.00;22.80;;;;;;;3.29;84.84;101382.91;5011313;28;20210;-67
2020/12/02 02:10:24;;;;;;;43.93;23.90;;;;;;;3.29;83.94;101382.03;5011968;28;20203;-67
2020/12/02 02:13:30;;;;;;;39.97;23.03;;;;;;;3.29;84.15;101382.03;5011404;28;20227;-67
2020/12/02 02:16:00;;;;;;;40.73;22.67;;;;;;;3.28;84.70;101375.91;4950891;28;20227;-67
2020/12/02 02:18:31;;;;;;;43.17;24.43;;;;;;;3.27;84.45;101379.44;5003227;28;20261;-67
2020/12/02 02:21:00;;;;;;;46.70;24.83;;;;;;;3.28;84.42;101372.41;5011630;28;20203;-67
2020/12/02 02:23:26;;;;;;;43.13;23.80;;;;;;;3.27;84.09;101368.91;5011324;28;20242;-67
2020/12/02 02:26:18;;;;;;;42.70;24.03;;;;;;;3.27;84.17;101368.91;5014110;28;20206;-67
2020/12/02 02:28:57;;;;;;;41.43;22.63;;;;;;;3.26;84.69;101367.16;5015952;28;20213;-67
2020/12/02 02:31:27;;;;;;;43.70;23.90;;;;;;;3.28;84.10;101375.91;5015695;28;20202;-67
2020/12/02 02:33:53;;;;;;;38.90;22.97;;;;;;;3.27;84.22;101374.16;5015772;28;20218;-67
2020/12/02 02:36:23;;;;;;;40.73;23.20;;;;;;;3.27;84.60;101368.91;5010844;28;20664;-67
2020/12/02 02:38:50;;;;;;;41.70;23.50;;;;;;;3.26;84.10;101367.16;5013755;28;20302;-67
2020/12/02 02:41:18;;;;;;;42.53;22.93;;;;;;;3.27;84.48;101368.03;5014892;28;20336;-67
2020/12/02 02:43:45;;;;;;;41.27;23.00;;;;;;;3.23;84.72;101355.84;5013906;28;20206;-67
2020/12/02 02:46:11;;;;;;;42.17;23.60;;;;;;;3.21;84.51;101353.28;5015350;28;20217;-67
2020/12/02 02:48:37;;;;;;;42.63;23.30;;;;;;;3.22;84.16;101362.91;5015440;28;20710;-67
2020/12/02 02:51:04;;;;;;;45.63;24.03;;;;;;;3.22;84.60;101362.03;5015963;28;20207;-66
2020/12/02 02:53:31;;;;;;;41.87;23.13;;;;;;;3.20;85.04;101354.16;5014534;28;20229;-66
2020/12/02 02:55:58;;;;;;;40.73;22.50;;;;;;;3.20;84.65;101356.81;5014930;28;20203;-67
2020/12/02 02:58:26;;;;;;;40.17;22.83;;;;;;;3.20;84.45;101356.81;5015092;28;20671;-66
2020/12/02 03:00:53;;;;;;;48.30;24.50;;;;;;;3.20;85.11;101359.44;5014362;28;20211;-66
2020/12/02 03:03:20;;;;;;;47.47;23.53;;;;;;;3.20;85.05;101359.44;5014322;28;20227;-67
2020/12/02 03:05:46;;;;;;;45.07;23.30;;;;;;;3.20;84.90;101355.94;5014711;28;20583;-67
2020/12/02 03:08:13;;;;;;;46.10;24.27;;;;;;;3.20;85.03;101367.31;5014694;28;20210;-67
2020/12/02 03:10:42;;;;;;;43.67;24.40;;;;;;;3.19;84.89;101370.84;5015554;28;20214;-67
2020/12/02 03:13:20;;;;;;;43.20;23.10;;;;;;;3.19;84.43;101356.84;5014520;28;20219;-67
2020/12/02 03:15:48;;;;;;;41.40;23.83;;;;;;;3.19;84.45;101354.19;5014550;28;20207;-67
2020/12/02 03:18:15;;;;;;;44.57;24.33;;;;;;;3.18;84.39;101353.34;5014616;28;20578;-67
2020/12/02 03:20:45;;;;;;;43.83;23.73;;;;;;;3.18;85.18;101344.56;5014911;28;20203;-67
2020/12/02 03:23:14;;;;;;;43.53;25.03;;;;;;;3.18;85.17;101352.47;5014109;28;20713;-68
2020/12/02 03:25:42;;;;;;;43.33;23.60;;;;;;;3.18;85.05;101348.06;5014299;28;20219;-67
2020/12/02 03:28:08;;;;;;;44.20;24.10;;;;;;;3.18;85.07;101347.19;5015096;28;20262;-67
2020/12/02 03:30:35;;;;;;;43.93;24.30;;;;;;;3.18;84.83;101341.94;5014997;28;20211;-67
2020/12/02 03:33:02;;;;;;;41.67;22.83;;;;;;;3.17;84.69;101350.72;5014010;28;20241;-67
2020/12/02 03:35:28;;;;;;;42.17;23.37;;;;;;;3.17;85.18;101341.06;5013747;28;20586;-67
2020/12/02 03:37:54;;;;;;;39.33;22.50;;;;;;;3.17;84.38;101340.19;5013500;28;20207;-67
2020/12/02 03:40:20;;;;;;;40.40;21.70;;;;;;;3.15;85.16;101342.88;5013924;28;20668;-67
2020/12/02 03:42:46;;;;;;;43.00;23.87;;;;;;;3.16;84.51;101343.72;5013885;28;20235;-66
2020/12/02 03:45:12;;;;;;;42.10;23.13;;;;;;;3.14;85.25;101349.91;5013841;28;20216;-67
2020/12/02 03:47:39;;;;;;;40.67;23.80;;;;;;;3.14;84.69;101349.03;5014463;28;20211;-67
2020/12/02 03:50:07;;;;;;;43.13;23.60;;;;;;;3.14;85.15;101349.91;5014604;28;20209;-67
2020/12/02 03:52:33;;;;;;;40.17;22.83;;;;;;;3.15;85.23;101350.75;5000359;28;20599;-66
2020/12/02 03:54:59;;;;;;;39.57;22.17;;;;;;;3.14;84.36;101343.75;5013919;28;20207;-67
2020/12/02 03:57:25;;;;;;;40.63;23.30;;;;;;;3.14;84.88;101342.00;5012969;28;20240;-67
2020/12/02 03:59:52;;;;;;;43.03;23.77;;;;;;;3.13;84.74;101339.41;5013389;28;20209;-67
2020/12/02 04:02:18;;;;;;;38.57;22.53;;;;;;;3.12;85.27;101335.91;5013253;28;20226;-66
2020/12/02 04:04:44;;;;;;;40.67;22.70;;;;;;;3.12;84.67;101329.75;5014026;28;20203;-67
2020/12/02 04:07:11;;;;;;;37.67;20.70;;;;;;;3.13;85.14;101336.75;5014011;28;20704;-67
2020/12/02 04:09:37;;;;;;;41.37;22.97;;;;;;;3.13;84.42;101331.50;5013838;28;20209;-67
2020/12/02 04:12:03;;;;;;;41.53;22.63;;;;;;;3.13;84.37;101328.88;5013519;28;20226;-67
2020/12/02 04:14:29;;;;;;;41.70;23.00;;;;;;;3.13;84.99;101335.00;5014154;28;20207;-67
2020/12/02 04:16:55;;;;;;;38.00;22.03;;;;;;;3.12;84.70;101328.00;5012819;28;20225;-67
2020/12/02 04:19:22;;;;;;;42.37;21.97;;;;;;;3.11;84.59;101328.91;5013843;28;20203;-68
2020/12/02 04:21:48;;;;;;;39.83;22.47;;;;;;;3.12;84.25;101324.50;5012885;28;20318;-67
2020/12/02 04:24:15;;;;;;;44.60;23.80;;;;;;;3.13;85.13;101326.25;5013906;28;20206;-67
2020/12/02 04:26:41;;;;;;;41.57;23.97;;;;;;;3.13;84.22;101326.25;5013262;28;20207;-67
2020/12/02 04:29:07;;;;;;;46.13;23.37;;;;;;;3.13;84.72;101323.59;5014031;28;20211;-67
2020/12/02 04:31:33;;;;;;;46.43;22.63;;;;;;;3.14;84.10;101328.84;5012480;28;20231;-67
2020/12/02 04:33:59;;;;;;;37.50;21.83;;;;;;;3.14;84.22;101326.19;5013946;28;20207;-67
2020/12/02 04:36:25;;;;;;;37.93;21.80;;;;;;;3.13;84.73;101324.47;5011202;28;20204;-67
2020/12/02 04:38:51;;;;;;;41.37;22.40;;;;;;;3.13;85.05;101319.22;5013408;28;20215;-67
2020/12/02 04:41:19;;;;;;;39.10;22.27;;;;;;;3.15;84.42;101316.53;5013557;28;20215;-67
2020/12/02 04:43:47;;;;;;;41.33;22.97;;;;;;;3.16;85.04;101320.91;5012735;28;20226;-67
2020/12/02 04:46:17;;;;;;;38.73;22.33;;;;;;;3.17;84.26;101322.66;5013055;28;20236;-67
2020/12/02 04:48:45;;;;;;;40.77;22.00;;;;;;;3.16;84.45;101314.78;5012980;28;20213;-67
2020/12/02 04:51:14;;;;;;;40.37;23.60;;;;;;;3.16;84.88;101323.53;5013520;28;20229;-67
2020/12/02 04:53:47;;;;;;;43.67;23.07;;;;;;;3.15;84.56;101319.19;5012561;28;20211;-67
2020/12/02 04:56:13;;;;;;;41.50;24.07;;;;;;;3.14;84.85;101318.31;5012989;28;20207;-67
2020/12/02 04:58:41;;;;;;;41.50;22.03;;;;;;;3.14;84.52;101306.91;5009072;28;20211;-67
2020/12/02 05:01:16;;;;;;;43.90;23.07;;;;;;;3.12;84.30;101309.56;5010005;28;20234;-67
2020/12/02 05:03:52;;;;;;;42.77;23.60;;;;;;;3.12;84.07;101301.69;5003543;28;20230;-67
2020/12/02 05:06:26;;;;;;;46.90;24.40;;;;;;;3.12;84.47;101308.72;5011603;28;20207;-67
2020/12/02 05:09:03;;;;;;;46.07;25.00;;;;;;;3.12;84.55;101313.97;5010684;28;20583;-67
2020/12/02 05:11:29;;;;;;;44.57;24.10;;;;;;;3.12;84.50;101316.59;5003559;28;20214;-68
2020/12/02 05:14:00;;;;;;;40.70;23.20;;;;;;;3.12;84.42;101313.97;5004614;28;20195;-67
2020/12/02 05:16:26;;;;;;;43.80;24.83;;;;;;;3.11;84.21;101313.09;5005803;28;20207;-67
2020/12/02 05:19:03;;;;;;;44.47;23.63;;;;;;;3.10;84.25;101308.75;5004610;28;20204;-67
2020/12/02 05:21:40;;;;;;;45.40;23.03;;;;;;;3.12;84.21;101312.22;5010553;28;20836;-67
2020/12/02 05:24:08;;;;;;;45.00;24.97;;;;;;;3.13;84.29;101313.06;5007393;28;20293;-67
2020/12/02 05:26:37;;;;;;;49.67;25.23;;;;;;;3.12;84.08;101313.97;5009410;28;20225;-68
2020/12/02 05:29:16;;;;;;;50.17;25.93;;;;;;;3.10;84.81;101306.09;5001701;28;20651;-67
2020/12/02 05:31:44;;;;;;;47.63;25.00;;;;;;;3.09;84.63;101307.00;5004866;28;20230;-68
2020/12/02 05:34:14;;;;;;;55.27;25.80;;;;;;;3.09;84.06;101306.13;5005477;28;20217;-67
2020/12/02 05:36:44;;;;;;;51.03;27.10;;;;;;;3.06;84.70;101308.84;5005460;28;20211;-67
2020/12/02 05:39:19;;;;;;;47.47;25.00;;;;;;;3.07;84.39;101311.44;4996488;28;20217;-68
2020/12/02 05:41:49;;;;;;;46.90;25.50;;;;;;;3.07;84.33;101310.56;5005538;28;20825;-67
2020/12/02 05:44:21;;;;;;;50.80;25.13;;;;;;;3.06;83.98;101312.34;5011159;28;20206;-68
2020/12/02 05:46:49;;;;;;;49.93;26.27;;;;;;;3.06;84.22;101306.19;5008401;28;20207;-67
2020/12/02 05:49:19;;;;;;;50.50;26.63;;;;;;;3.05;84.77;101300.06;5009973;28;20214;-66
2020/12/02 05:51:45;;;;;;;48.73;25.50;;;;;;;3.05;84.01;101309.72;5011703;28;20227;-67
2020/12/02 05:54:14;;;;;;;47.27;25.67;;;;;;;3.04;84.05;101298.38;5011227;28;20203;-67
2020/12/02 05:56:40;;;;;;;46.70;25.80;;;;;;;3.04;84.14;101297.50;4998798;28;20211;-67
2020/12/02 05:59:07;;;;;;;46.20;25.33;;;;;;;3.05;84.08;101283.41;4999386;28;20203;-67
2020/12/02 06:01:34;;;;;;;48.60;25.43;;;;;;;3.05;83.99;101280.78;5005873;28;20717;-67
2020/12/02 06:04:00;;;;;;;51.40;26.90;;;;;;;3.04;83.77;101294.88;5001554;28;20247;-65
2020/12/02 06:06:30;;;;;;;50.17;25.83;;;;;;;3.04;83.98;101287.84;5003034;28;20209;-66
2020/12/02 06:08:57;;;;;;;49.03;26.40;;;;;;;3.04;84.43;101279.09;5011122;28;20211;-67
2020/12/02 06:11:33;;;;;;;53.00;26.47;;;;;;;3.03;84.04;101279.97;5008549;28;20682;-68
2020/12/02 06:14:02;;;;;;;46.73;24.83;;;;;;;3.04;84.05;101281.72;5011344;28;20207;-67
2020/12/02 06:16:36;;;;;;;47.13;25.40;;;;;;;3.02;84.50;101284.38;5001826;28;20229;-67
2020/12/02 06:19:17;;;;;;;55.17;26.17;;;;;;;3.01;84.10;101277.38;5008092;28;20206;-67
2020/12/02 06:21:45;;;;;;;49.53;25.83;;;;;;;3.01;84.35;101277.38;5009863;28;20597;-67
2020/12/02 06:24:13;;;;;;;46.43;24.67;;;;;;;3.01;84.10;101280.00;5009617;28;20691;-68
2020/12/02 06:26:42;;;;;;;49.57;25.93;;;;;;;3.00;84.22;101285.31;5009655;28;20678;-67
2020/12/02 06:29:23;;;;;;;48.67;25.13;;;;;;;2.99;84.13;101292.34;5009004;28;20209;-67
2020/12/02 06:31:57;;;;;;;50.47;27.20;;;;;;;3.00;84.58;101285.31;5004845;28;21157;-67
2020/12/02 06:34:26;;;;;;;45.67;25.00;;;;;;;3.01;83.89;101281.78;5007361;28;20203;-67
2020/12/02 06:37:08;;;;;;;51.60;25.20;;;;;;;3.04;83.70;101286.97;5010362;28;20207;-67
2020/12/02 06:39:37;;;;;;;47.93;27.20;;;;;;;3.05;84.29;101288.69;5008955;28;20207;-68
2020/12/02 06:42:23;;;;;;;47.87;25.87;;;;;;;3.07;83.63;101285.13;5003796;28;20226;-67
2020/12/02 06:45:10;;;;;;;50.23;26.77;;;;;;;3.08;83.78;101278.09;5005422;28;20207;-67
2020/12/02 06:47:55;;;;;;;53.60;27.47;;;;;;;3.09;84.35;101287.72;5009318;28;20582;-67
2020/12/02 06:50:23;;;;;;;53.93;27.03;;;;;;;3.09;84.16;101278.06;5006289;28;20253;-67
2020/12/02 06:52:50;;;;;;;48.53;24.80;;;;;;;3.10;84.68;101282.44;5006296;28;20227;-67
2020/12/02 06:55:21;;;;;;;47.93;26.07;;;;;;;3.10;83.73;101276.28;5007291;28;20203;-67
2020/12/02 06:57:54;;;;;;;49.23;26.37;;;;;;;3.10;84.21;101271.91;5003622;28;20215;-68
2020/12/02 07:00:23;;;;;;;48.83;25.13;;;;;;;3.10;83.77;101271.91;5007393;28;20203;-67
2020/12/02 07:02:55;;;;;;;48.47;25.67;;;;;;;3.10;84.07;101266.63;5002022;28;20254;-67
2020/12/02 07:05:27;;;;;;;51.57;26.57;;;;;;;3.11;84.09;101267.50;4998678;28;20199;-66
2020/12/02 07:08:05;;;;;;;49.87;24.87;;;;;;;3.11;83.66;101270.13;5003288;28;20672;-67
2020/12/02 07:10:32;;;;;;;52.40;25.00;;;;;;;3.10;83.57;101265.78;5005441;28;20210;-67
2020/12/02 07:12:58;;;;;;;48.57;25.50;;;;;;;3.10;83.91;101271.03;5014157;28;20222;-67
2020/12/02 07:15:24;;;;;;;48.67;25.70;;;;;;;3.11;83.79;101267.50;5015607;28;20207;-67
2020/12/02 07:17:52;;;;;;;49.43;24.80;;;;;;;3.10;84.04;101278.94;5014826;28;20214;-66
2020/12/02 07:20:19;;;;;;;47.07;25.83;;;;;;;3.11;84.31;101270.13;5014722;28;20211;-68
2020/12/02 07:22:51;;;;;;;48.70;26.03;;;;;;;3.13;83.66;101265.69;5014004;28;20237;-66
2020/12/02 07:25:18;;;;;;;48.90;25.60;;;;;;;3.14;84.15;101270.06;5015246;28;20217;-69
2020/12/02 07:27:46;;;;;;;49.80;25.47;;;;;;;3.13;83.65;101268.34;5014695;28;20222;-68
2020/12/02 07:30:26;;;;;;;47.93;24.87;;;;;;;3.12;83.95;101269.22;5014563;28;20210;-66
2020/12/02 07:32:53;;;;;;;46.13;25.87;;;;;;;3.13;84.25;101273.59;5013634;28;20230;-67
2020/12/02 07:35:19;;;;;;;55.27;26.40;;;;;;;3.16;84.37;101272.66;5014730;28;20217;-66
2020/12/02 07:37:46;;;;;;;50.43;26.13;;;;;;;3.15;83.78;101266.53;5012488;28;20203;-66
2020/12/02 07:40:30;;;;;;;47.97;26.33;;;;;;;3.14;83.76;101260.41;5013490;28;20206;-67
2020/12/02 07:42:57;;;;;;;53.57;27.80;;;;;;;3.14;83.86;101270.06;5013755;28;20235;-66
2020/12/02 07:45:26;;;;;;;51.27;27.57;;;;;;;3.16;84.03;101262.13;5014896;28;20209;-66
2020/12/02 07:47:58;;;;;;;54.03;27.57;;;;;;;3.16;83.48;101270.91;5014595;28;20207;-66
2020/12/02 07:50:30;;;;;;;52.00;26.60;;;;;;;3.17;83.61;101270.00;5014453;28;20199;-67
2020/12/02 07:53:05;;;;;;;48.93;26.47;;;;;;;3.18;84.27;101263.84;5013853;28;20711;-66
2020/12/02 07:55:40;;;;;;;54.93;28.20;;;;;;;3.17;83.83;101262.09;5014565;28;20198;-66
2020/12/02 07:58:12;;;;;;;47.87;26.77;;;;;;;3.18;83.48;101257.72;5007750;28;20220;-66
2020/12/02 08:00:43;;;;;;;53.03;26.27;;;;;;;3.18;83.89;101260.34;5014500;28;20203;-69
2020/12/02 08:03:25;;;;;;;56.13;26.93;;;;;;;3.16;84.23;101259.50;5013540;28;20230;-67
2020/12/02 08:06:01;;;;;;;54.80;27.63;;;;;;;3.16;84.11;101262.13;5001160;28;20207;-67
2020/12/02 08:08:27;;;;;;;55.27;27.73;;;;;;;3.17;84.04;101262.09;5014295;28;20297;-69
2020/12/02 08:11:02;;;;;;;56.77;28.10;;;;;;;3.17;83.35;101264.75;5013913;28;20214;-67
2020/12/02 08:13:29;;;;;;;54.17;27.17;;;;;;;3.17;84.22;101271.75;5013602;28;20222;-67
2020/12/02 08:15:58;;;;;;;52.23;28.00;;;;;;;3.16;83.98;101263.00;5013878;28;20207;-67
2020/12/02 08:18:26;;;;;;;51.00;26.00;;;;;;;3.17;83.73;101261.25;5013902;28;20577;-67
2020/12/02 08:20:53;;;;;;;50.00;25.83;;;;;;;3.14;83.43;101265.66;5013607;28;20308;-66
2020/12/02 08:23:25;;;;;;;56.67;28.40;;;;;;;3.16;83.73;101256.88;5012258;28;20235;-67
2020/12/02 08:26:03;;;;;;;52.30;27.97;;;;;;;3.17;84.15;101255.97;5013875;28;20233;-67
2020/12/02 08:28:36;;;;;;;53.10;26.27;;;;;;;3.17;83.74;101255.97;5001524;28;20207;-68
2020/12/02 08:31:07;;;;;;;59.33;28.07;;;;;;;3.15;83.90;101253.38;5013558;28;20195;-68
2020/12/02 08:33:33;;;;;;;53.90;26.63;;;;;;;3.16;83.85;101243.72;5012972;28;20231;-67
2020/12/02 08:36:06;;;;;;;54.13;28.07;;;;;;;3.15;83.71;101250.75;5012443;28;20253;-67
2020/12/02 08:38:37;;;;;;;56.33;27.07;;;;;;;3.16;83.39;101249.84;5013771;28;20207;-67
2020/12/02 08:41:04;;;;;;;53.37;26.37;;;;;;;3.16;83.52;101252.47;5011568;28;20210;-68
2020/12/02 08:43:37;;;;;;;56.63;27.60;;;;;;;3.14;83.69;101252.50;5011267;28;20233;-67
2020/12/02 08:46:27;;;;;;;56.70;27.70;;;;;;;3.15;83.79;101253.38;5013125;28;20202;-67
2020/12/02 08:48:56;;;;;;;57.03;28.03;;;;;;;3.14;84.25;101247.25;5001222;28;20217;-67
2020/12/02 08:51:24;;;;;;;54.57;26.80;;;;;;;3.16;84.29;101252.47;5013192;28;20322;-67
2020/12/02 08:53:51;;;;;;;57.00;28.17;;;;;;;3.16;83.83;101241.94;5012663;28;20219;-67
2020/12/02 08:56:31;;;;;;;54.53;27.63;;;;;;;3.17;83.50;101245.44;5012508;28;20241;-67
2020/12/02 08:58:59;;;;;;;55.93;27.27;;;;;;;3.19;83.67;101247.16;4999831;28;20289;-67
2020/12/02 09:01:25;;;;;;;51.37;25.50;;;;;;;3.19;84.06;101247.16;5013121;28;20214;-67
2020/12/02 09:03:51;;;;;;;51.03;27.13;;;;;;;3.19;83.44;101248.91;5012608;28;20229;-66
2020/12/02 09:06:19;;;;;;;48.23;25.53;;;;;;;3.20;84.20;101229.59;5012806;28;20210;-67
2020/12/02 09:08:45;;;;;;;53.87;27.07;;;;;;;3.19;83.81;101234.00;5013055;28;20214;-67
2020/12/02 09:11:16;;;;;;;55.80;26.97;;;;;;;3.20;83.65;101238.34;5013045;28;20217;-67
2020/12/02 09:13:42;;;;;;;54.00;26.73;;;;;;;3.22;83.43;101230.41;5012249;28;20206;-67
2020/12/02 09:16:09;;;;;;;51.13;27.70;;;;;;;3.24;83.67;101229.47;5012063;28;20678;-68
2020/12/02 09:18:35;;;;;;;59.27;27.73;;;;;;;3.25;83.63;101228.56;5012920;28;20656;-67
2020/12/02 09:21:01;;;;;;;54.93;27.70;;;;;;;3.25;84.29;101220.66;5012755;28;20667;-67
2020/12/02 09:23:27;;;;;;;54.67;27.37;;;;;;;3.26;83.63;101218.88;5011719;28;20226;-67
2020/12/02 09:25:53;;;;;;;55.83;26.37;;;;;;;3.28;83.54;101219.72;5013119;28;20209;-67
2020/12/02 09:28:19;;;;;;;53.83;27.57;;;;;;;3.29;84.36;101208.28;5012070;28;20206;-66
2020/12/02 09:30:45;;;;;;;53.83;26.87;;;;;;;3.30;84.21;101215.28;5013097;28;20295;-67
2020/12/02 09:33:12;;;;;;;54.07;27.47;;;;;;;3.28;84.35;101210.06;5011572;28;20227;-67
2020/12/02 09:35:38;;;;;;;51.47;25.37;;;;;;;3.28;84.05;101207.44;5011578;28;20203;-67
2020/12/02 09:38:08;;;;;;;60.00;28.60;;;;;;;3.28;84.08;101209.19;5012318;28;20675;-67
2020/12/02 09:40:34;;;;;;;53.40;27.40;;;;;;;3.28;84.23;101207.44;5012260;28;20233;-67
2020/12/02 09:43:17;;;;;;;56.47;27.40;;;;;;;3.30;84.27;101202.13;5010429;28;20596;-67
2020/12/02 09:45:52;;;;;;;55.73;27.70;;;;;;;3.32;83.50;101211.72;5001687;28;20233;-67
2020/12/02 09:48:23;;;;;;;53.13;26.23;;;;;;;3.33;84.30;101209.97;5011645;28;20217;-66
2020/12/02 09:50:50;;;;;;;54.43;27.43;;;;;;;3.33;84.30;101210.81;5012616;28;20584;-67
2020/12/02 09:53:20;;;;;;;49.87;26.70;;;;;;;3.33;83.63;101208.19;5011817;28;20227;-67
2020/12/02 09:55:46;;;;;;;53.17;26.83;;;;;;;3.36;84.09;101199.34;5011685;28;20268;-67
2020/12/02 09:58:13;;;;;;;57.63;28.37;;;;;;;3.36;83.47;101194.94;5009326;28;20211;-66
2020/12/02 10:00:39;;;;;;;50.27;26.03;;;;;;;3.37;83.54;101191.41;5011595;28;20314;-67
2020/12/02 10:03:43;;;;;;;56.57;27.10;;;;;;;3.37;83.95;101186.16;5011051;28;20230;-68
2020/12/02 10:06:25;;;;;;;51.50;25.03;;;;;;;3.39;84.06;101184.34;5010884;28;20208;-67
2020/12/02 10:09:36;;;;;;;52.57;25.43;;;;;;;3.36;83.84;101181.78;5011272;28;20234;-67
2020/12/02 10:12:11;;;;;;;49.83;25.00;;;;;;;3.35;83.45;101174.78;4982589;28;20223;-68
2020/12/02 10:14:52;;;;;;;53.87;25.83;;;;;;;3.36;83.31;101173.91;5011139;28;20210;-68
2020/12/02 10:17:38;;;;;;;52.03;27.43;;;;;;;3.38;84.09;101171.22;5006045;28;20225;-69
2020/12/02 10:20:14;;;;;;;53.73;25.70;;;;;;;3.41;83.54;101166.72;5009815;28;20202;-71
2020/12/02 10:23:05;;;;;;;53.67;27.27;;;;;;;3.46;83.97;101150.81;5006899;28;20230;-67
2020/12/02 10:25:50;;;;;;;46.63;25.03;;;;;;;3.47;83.90;101147.28;5009307;28;20207;-67
2020/12/02 10:28:26;;;;;;;47.50;25.30;;;;;;;3.48;83.69;101141.09;5009462;28;20199;-68
2020/12/02 10:31:03;;;;;;;50.07;25.43;;;;;;;3.46;83.72;101137.63;5006198;28;20293;-67
2020/12/02 10:33:52;;;;;;;49.27;25.03;;;;;;;3.47;83.26;101142.88;5009437;28;20222;-68
2020/12/02 10:36:20;;;;;;;51.73;25.40;;;;;;;3.46;83.27;101130.59;5009795;28;20209;-68
2020/12/02 10:38:51;;;;;;;52.27;26.23;;;;;;;3.48;83.90;101126.16;5006551;28;20203;-67
2020/12/02 10:41:33;;;;;;;48.37;24.63;;;;;;;3.51;83.39;101121.72;5009538;28;20583;-67
2020/12/02 10:44:18;;;;;;;48.43;25.17;;;;;;;3.54;83.31;101125.16;5006333;28;20223;-67
2020/12/02 10:47:20;;;;;;;55.13;27.20;;;;;;;3.56;83.18;101111.94;5008103;28;20210;-67
2020/12/02 10:49:47;;;;;;;53.03;25.33;;;;;;;3.56;83.03;101106.69;5014833;28;20207;-67
2020/12/02 10:52:17;;;;;;;49.87;25.23;;;;;;;3.58;83.58;101108.38;5014329;28;20223;-69
2020/12/02 10:54:46;;;;;;;47.10;25.00;;;;;;;3.59;83.43;101102.16;5003280;28;20213;-68
2020/12/02 10:57:16;;;;;;;51.07;25.90;;;;;;;3.59;83.55;101098.66;5010020;28;20994;-68
2020/12/02 10:59:45;;;;;;;49.20;25.60;;;;;;;3.63;83.32;101088.00;5011289;28;20214;-68
2020/12/02 11:02:15;;;;;;;49.23;24.63;;;;;;;3.67;83.77;101079.13;5008708;28;20223;-68
2020/12/02 11:04:41;;;;;;;54.43;24.90;;;;;;;3.70;83.41;101078.19;5009169;28;20609;-67
2020/12/02 11:07:21;;;;;;;50.63;24.90;;;;;;;3.69;83.44;101076.44;5008454;28;20206;-68
2020/12/02 11:09:57;;;;;;;49.40;24.57;;;;;;;3.69;83.78;101072.03;5011363;28;20209;-68
2020/12/02 11:12:52;;;;;;;48.83;24.63;;;;;;;3.72;83.53;101071.09;5012617;28;20223;-67
2020/12/02 11:15:32;;;;;;;45.47;24.10;;;;;;;3.74;83.61;101061.38;5004982;28;20215;-68
2020/12/02 11:18:13;;;;;;;49.13;23.37;;;;;;;3.76;83.52;101059.56;4996543;28;20206;-66
2020/12/02 11:20:48;;;;;;;47.10;24.47;;;;;;;3.78;82.91;101060.38;5008454;28;20204;-67
2020/12/02 11:23:28;;;;;;;47.87;23.27;;;;;;;3.82;82.99;101059.38;5007821;28;20595;-66
2020/12/02 11:26:03;;;;;;;45.83;23.27;;;;;;;3.82;83.36;101049.69;5013185;28;20199;-66
2020/12/02 11:28:29;;;;;;;43.40;22.90;;;;;;;3.85;83.25;101043.47;5004341;28;20204;-67
2020/12/02 11:31:03;;;;;;;46.13;24.73;;;;;;;3.86;82.58;101039.94;5006108;28;20207;-67
2020/12/02 11:33:52;;;;;;;45.93;23.53;;;;;;;3.90;82.85;101035.44;5013596;28;20229;-68